Time;durP1;ratioP1;P1;durP2;ratioP2;P2;SDS_P1;SDS_P2;PMS_P1;PMS_P2;Temp;Humidity;BMP_temperature;BMP_pressure;BME280_temperature;BME280_humidity;BME280_pressure;Samples;Min_cycle;Max_cycle;Signal;HPM_P1;HPM_P2
2024/02/13 00:00:48;;;;;;;5.03;3.00;;;;;;;11.58;100.00;96381.91;5002766;28;20057;-81
2024/02/13 00:03:14;;;;;;;15.13;5.82;;;;;;;11.27;100.00;96388.97;4985488;28;20137;-82
2024/02/13 00:05:40;;;;;;;19.98;6.13;;;;;;;11.01;100.00;96399.19;4978213;28;20440;-82
2024/02/13 00:08:06;;;;;;;14.77;6.43;;;;;;;10.76;100.00;96407.50;4998536;28;20029;-82
2024/02/13 00:10:33;;;;;;;18.85;6.25;;;;;;;10.47;100.00;96403.63;5006492;28;20080;-81
2024/02/13 00:12:58;;;;;;;11.85;6.00;;;;;;;10.33;100.00;96416.28;4994541;28;20489;-82
2024/02/13 00:15:25;;;;;;;15.32;5.95;;;;;;;10.10;100.00;96419.00;4984995;28;20148;-81
2024/02/13 00:17:51;;;;;;;9.50;5.35;;;;;;;10.08;100.00;96435.19;4977541;28;20152;-82
2024/02/13 00:20:17;;;;;;;10.05;5.85;;;;;;;10.04;100.00;96436.38;4978034;28;20452;-82
2024/02/13 00:22:45;;;;;;;15.07;6.40;;;;;;;10.03;100.00;96432.00;5000758;28;20017;-82
2024/02/13 00:25:12;;;;;;;13.68;5.90;;;;;;;10.00;100.00;96431.38;5014049;28;20018;-82
2024/02/13 00:27:38;;;;;;;11.02;4.80;;;;;;;10.07;100.00;96437.94;5008570;28;20022;-82
2024/02/13 00:30:05;;;;;;;11.07;4.55;;;;;;;10.10;100.00;96422.53;4983283;28;20025;-81
2024/02/13 00:32:32;;;;;;;6.72;3.42;;;;;;;10.21;100.00;96422.56;4978089;28;20026;-82
2024/02/13 00:34:58;;;;;;;8.70;3.90;;;;;;;10.28;100.00;96412.25;4978036;28;20026;-82
2024/02/13 00:37:24;;;;;;;6.63;4.10;;;;;;;10.41;100.00;96414.81;4977383;28;20018;-81
2024/02/13 00:39:50;;;;;;;9.65;4.28;;;;;;;10.49;100.00;96415.91;4999128;28;20071;-82
2024/02/13 00:42:16;;;;;;;6.90;4.00;;;;;;;10.57;100.00;96420.63;4976860;28;20437;-81
2024/02/13 00:44:44;;;;;;;6.88;4.43;;;;;;;10.54;100.00;96413.72;5006960;28;20029;-82
2024/02/13 00:47:10;;;;;;;12.55;4.10;;;;;;;10.47;100.00;96406.31;4992750;28;20119;-81
2024/02/13 00:49:38;;;;;;;18.70;7.75;;;;;;;10.47;100.00;96419.66;4996661;28;20184;-82
2024/02/13 00:52:07;;;;;;;9.27;5.07;;;;;;;10.46;100.00;96418.00;4977124;28;20029;-82
2024/02/13 00:54:32;;;;;;;14.88;6.88;;;;;;;10.39;100.00;96412.28;4977638;28;20030;-81
2024/02/13 00:56:58;;;;;;;22.63;6.45;;;;;;;10.17;100.00;96438.97;4993422;28;20038;-83
2024/02/13 00:59:25;;;;;;;8.52;5.07;;;;;;;10.14;100.00;96440.06;4976920;28;20049;-81
2024/02/13 01:01:50;;;;;;;22.42;6.68;;;;;;;10.14;100.00;96447.22;4993194;28;20022;-82
2024/02/13 01:04:16;;;;;;;15.10;6.88;;;;;;;10.10;100.00;96448.41;4979456;28;20029;-82
2024/02/13 01:06:42;;;;;;;18.67;7.32;;;;;;;10.00;100.00;96437.56;4987722;28;20409;-82
2024/02/13 01:09:08;;;;;;;18.38;6.93;;;;;;;9.97;100.00;96448.50;4976557;28;20041;-81
2024/02/13 01:11:35;;;;;;;23.77;6.70;;;;;;;9.81;100.00;96440.81;4995245;28;20473;-81
2024/02/13 01:14:04;;;;;;;16.85;6.88;;;;;;;9.80;100.00;96456.97;4996222;28;20029;-82
2024/02/13 01:16:29;;;;;;;12.48;6.13;;;;;;;9.70;100.00;96447.94;4983486;28;20066;-81
2024/02/13 01:18:56;;;;;;;13.75;5.82;;;;;;;9.62;100.00;96458.38;4992933;28;20513;-81
2024/02/13 01:21:23;;;;;;;11.25;5.45;;;;;;;9.58;100.00;96452.41;4976501;28;20489;-82
2024/02/13 01:23:49;;;;;;;15.23;6.35;;;;;;;9.63;100.00;96455.56;5006138;28;20076;-82
2024/02/13 01:26:18;;;;;;;13.15;5.60;;;;;;;9.59;100.00;96453.25;5004016;28;20056;-82
2024/02/13 01:28:46;;;;;;;14.80;5.10;;;;;;;9.50;100.00;96451.28;4984026;28;20034;-81
2024/02/13 01:31:13;;;;;;;15.07;6.10;;;;;;;9.52;100.00;96465.34;4983101;28;20117;-82
2024/02/13 01:33:39;;;;;;;12.98;5.70;;;;;;;9.52;100.00;96463.53;4976705;28;20025;-82
2024/02/13 01:36:06;;;;;;;14.70;6.80;;;;;;;9.53;100.00;96464.41;4976817;28;20478;-82
2024/02/13 01:38:32;;;;;;;13.45;6.28;;;;;;;9.50;100.00;96464.63;4980523;28;20033;-81
2024/02/13 01:40:58;;;;;;;14.75;6.18;;;;;;;9.48;100.00;96461.19;4980679;28;20564;-81
2024/02/13 01:43:25;;;;;;;18.25;6.30;;;;;;;9.54;100.00;96460.75;4992731;28;20034;-82
2024/02/13 01:45:56;;;;;;;23.15;7.22;;;;;;;9.60;100.00;96469.13;4993150;28;20168;-82
2024/02/13 01:48:22;;;;;;;13.85;6.05;;;;;;;9.64;100.00;96473.28;4977063;28;20528;-81
2024/02/13 01:50:49;;;;;;;13.05;6.28;;;;;;;9.65;100.00;96480.34;4996624;28;20033;-82
2024/02/13 01:53:17;;;;;;;17.70;7.03;;;;;;;9.63;100.00;96479.59;5014395;28;20175;-81
2024/02/13 01:55:44;;;;;;;19.60;7.30;;;;;;;9.65;100.00;96471.47;4999578;28;20126;-81
2024/02/13 01:58:11;;;;;;;18.75;7.47;;;;;;;9.60;100.00;96466.47;4983201;28;20481;-81
2024/02/13 02:00:37;;;;;;;16.20;6.90;;;;;;;9.62;100.00;96463.69;4988113;28;20026;-82
2024/02/13 02:03:03;;;;;;;15.80;6.25;;;;;;;9.70;100.00;96472.84;4995941;28;20056;-82
2024/02/13 02:05:31;;;;;;;16.75;6.47;;;;;;;9.76;100.00;96476.84;4988892;28;20092;-81
2024/02/13 02:07:57;;;;;;;15.90;6.25;;;;;;;9.80;100.00;96483.66;5002963;28;20440;-82
2024/02/13 02:10:23;;;;;;;16.98;6.32;;;;;;;9.84;100.00;96485.16;4997284;28;20038;-79
2024/02/13 02:12:49;;;;;;;17.60;6.43;;;;;;;9.80;100.00;96481.84;5005367;28;20037;-82
2024/02/13 02:15:16;;;;;;;13.30;6.43;;;;;;;9.80;100.00;96495.22;5004053;28;20406;-82
2024/02/13 02:17:52;;;;;;;15.45;6.45;;;;;;;9.78;100.00;96497.13;4982008;28;20029;-82
2024/02/13 02:20:19;;;;;;;17.90;6.43;;;;;;;9.74;100.00;96495.66;4989449;28;20044;-82
2024/02/13 02:22:49;;;;;;;18.48;6.90;;;;;;;9.71;100.00;96500.38;4995707;28;20053;-82
2024/02/13 02:25:18;;;;;;;33.58;10.40;;;;;;;9.75;100.00;96499.19;4987375;28;20029;-82
2024/02/13 02:27:44;;;;;;;17.55;6.50;;;;;;;9.66;100.00;96494.53;5006619;28;20428;-82
2024/02/13 02:30:10;;;;;;;21.15;7.80;;;;;;;9.63;100.00;96489.41;5015014;28;20025;-82
2024/02/13 02:32:35;;;;;;;17.52;7.72;;;;;;;9.75;100.00;96492.00;4990443;28;20032;-83
2024/02/13 02:35:01;;;;;;;18.52;7.82;;;;;;;9.79;100.00;96487.28;5007438;28;20025;-83
2024/02/13 02:37:27;;;;;;;17.60;6.95;;;;;;;9.79;100.00;96495.31;4997098;28;20029;-80
2024/02/13 02:39:52;;;;;;;16.38;7.05;;;;;;;9.78;100.00;96490.97;4998945;28;20025;-82
2024/02/13 02:42:18;;;;;;;16.42;6.90;;;;;;;9.69;100.00;96502.31;5000557;28;20105;-82
2024/02/13 02:44:43;;;;;;;20.35;6.35;;;;;;;9.72;100.00;96494.91;4997962;28;20342;-81
2024/02/13 02:47:10;;;;;;;17.42;6.20;;;;;;;9.76;100.00;96492.88;4983391;28;20033;-82
2024/02/13 02:49:37;;;;;;;16.23;6.25;;;;;;;9.67;100.00;96510.44;4993590;28;20017;-82
2024/02/13 02:52:07;;;;;;;15.55;6.65;;;;;;;9.70;100.00;96504.88;5014969;28;20489;-82
2024/02/13 02:54:36;;;;;;;17.08;6.78;;;;;;;9.78;100.00;96509.66;5001374;28;20125;-81
2024/02/13 02:57:05;;;;;;;25.85;7.55;;;;;;;9.76;100.00;96508.88;4979207;28;20073;-82
2024/02/13 02:59:31;;;;;;;24.15;6.32;;;;;;;9.73;100.00;96509.13;5003261;28;20041;-82
2024/02/13 03:01:57;;;;;;;17.58;6.40;;;;;;;9.61;100.00;96510.03;4980527;28;20390;-83
2024/02/13 03:04:23;;;;;;;22.23;6.93;;;;;;;9.57;100.00;96514.75;4998296;28;20029;-81
2024/02/13 03:06:48;;;;;;;11.45;6.03;;;;;;;9.55;100.00;96510.50;4989266;28;20025;-81
2024/02/13 03:09:15;;;;;;;13.43;5.60;;;;;;;9.50;100.00;96512.66;5003385;28;20043;-83
2024/02/13 03:11:41;;;;;;;12.23;5.22;;;;;;;9.48;100.00;96514.59;4995175;28;20049;-81
2024/02/13 03:14:09;;;;;;;9.35;4.90;;;;;;;9.52;100.00;96527.59;4988224;28;20052;-82
2024/02/13 03:16:35;;;;;;;10.15;6.32;;;;;;;9.52;100.00;96518.75;4995346;28;20044;-82
2024/02/13 03:19:05;;;;;;;22.90;7.00;;;;;;;9.60;100.00;96524.34;4987984;28;20030;-81
2024/02/13 03:21:32;;;;;;;12.27;6.38;;;;;;;9.65;100.00;96544.41;4978652;28;20045;-82
2024/02/13 03:23:58;;;;;;;14.57;6.10;;;;;;;9.57;100.00;96529.91;4988217;28;20035;-82
2024/02/13 03:26:24;;;;;;;17.30;7.95;;;;;;;9.60;100.00;96533.22;4994114;28;20030;-82
2024/02/13 03:28:49;;;;;;;16.25;8.02;;;;;;;9.66;100.00;96542.56;4985012;28;20091;-82
2024/02/13 03:31:15;;;;;;;16.10;8.18;;;;;;;9.67;100.00;96544.28;4995800;28;20482;-81
2024/02/13 03:33:41;;;;;;;20.63;8.00;;;;;;;9.68;100.00;96540.66;4994831;28;20034;-82
2024/02/13 03:36:07;;;;;;;18.75;7.75;;;;;;;9.69;100.00;96547.72;4984647;28;20061;-82
2024/02/13 03:38:32;;;;;;;22.85;9.05;;;;;;;9.73;100.00;96543.84;4977931;28;20548;-81
2024/02/13 03:40:59;;;;;;;16.33;8.15;;;;;;;9.78;100.00;96549.69;4995161;28;20068;-81
2024/02/13 03:43:25;;;;;;;15.38;7.43;;;;;;;9.83;100.00;96558.22;5001129;28;20060;-76
2024/02/13 03:45:51;;;;;;;21.95;7.63;;;;;;;9.80;100.00;96547.75;4994677;28;20069;-80
2024/02/13 03:48:17;;;;;;;17.77;8.80;;;;;;;9.79;100.00;96543.38;4977788;28;20026;-81
2024/02/13 03:50:43;;;;;;;20.52;8.45;;;;;;;9.77;100.00;96550.66;4994376;28;20112;-82
2024/02/13 03:53:09;;;;;;;15.18;7.55;;;;;;;9.78;100.00;96552.38;4979290;28;20061;-81
2024/02/13 03:55:34;;;;;;;18.20;6.53;;;;;;;9.75;100.00;96550.75;4977877;28;20418;-81
2024/02/13 03:58:00;;;;;;;16.35;7.90;;;;;;;9.74;100.00;96545.53;4978834;28;20075;-81
2024/02/13 04:00:26;;;;;;;15.00;6.65;;;;;;;9.76;100.00;96557.81;4992879;28;20037;-81
2024/02/13 04:02:52;;;;;;;16.45;7.25;;;;;;;9.76;100.00;96570.31;4974473;28;20069;-82
2024/02/13 04:05:21;;;;;;;12.40;7.15;;;;;;;9.75;100.00;96568.63;5009235;28;20446;-82
2024/02/13 04:07:46;;;;;;;15.63;7.63;;;;;;;9.75;100.00;96565.94;4993547;28;20033;-82
2024/02/13 04:10:12;;;;;;;15.93;8.55;;;;;;;9.73;100.00;96568.72;5000411;28;20509;-81
2024/02/13 04:12:38;;;;;;;20.38;8.73;;;;;;;9.70;100.00;96573.44;4985801;28;20163;-81
2024/02/13 04:15:04;;;;;;;14.20;6.43;;;;;;;9.52;100.00;96588.13;4983778;28;20042;-81
2024/02/13 04:17:30;;;;;;;13.50;6.30;;;;;;;9.46;100.00;96591.25;4993789;28;20045;-82
2024/02/13 04:19:55;;;;;;;15.35;6.20;;;;;;;9.42;100.00;96590.63;5010085;28;20038;-82
2024/02/13 04:22:21;;;;;;;10.60;5.70;;;;;;;9.36;100.00;96590.22;4993658;28;20383;-82
2024/02/13 04:24:46;;;;;;;12.60;5.22;;;;;;;9.33;100.00;96598.44;5008837;28;20116;-82
2024/02/13 04:27:12;;;;;;;11.90;5.85;;;;;;;9.30;100.00;96594.19;4993114;28;20054;-82
2024/02/13 04:29:41;;;;;;;10.52;6.00;;;;;;;9.16;100.00;96602.34;4980911;28;20022;-82
2024/02/13 04:32:07;;;;;;;10.00;6.07;;;;;;;9.13;100.00;96605.22;4990526;28;20041;-81
2024/02/13 04:34:32;;;;;;;12.25;5.53;;;;;;;8.98;100.00;96607.13;4975382;28;20117;-74
2024/02/13 04:37:00;;;;;;;12.75;6.20;;;;;;;8.96;100.00;96603.75;4982469;28;20163;-83
2024/02/13 04:39:25;;;;;;;16.58;6.00;;;;;;;8.99;100.00;96606.19;5009439;28;20390;-82
2024/02/13 04:41:51;;;;;;;15.00;7.03;;;;;;;9.03;100.00;96614.84;4993240;28;20044;-83
2024/02/13 04:44:16;;;;;;;12.25;5.80;;;;;;;9.01;100.00;96601.59;4975753;28;20113;-82
2024/02/13 04:46:42;;;;;;;10.25;6.10;;;;;;;8.87;100.00;96604.38;4993394;28;20105;-82
2024/02/13 04:49:09;;;;;;;12.02;6.55;;;;;;;8.67;100.00;96591.63;4999728;28;20034;-83
2024/02/13 04:51:35;;;;;;;14.00;8.05;;;;;;;8.62;100.00;96605.25;4997539;28;20027;-83
2024/02/13 04:54:00;;;;;;;13.93;6.82;;;;;;;8.48;100.00;96609.81;4974106;28;20202;-84
2024/02/13 04:56:26;;;;;;;19.33;8.20;;;;;;;8.39;100.00;96611.31;4986051;28;20025;-84
2024/02/13 04:58:55;;;;;;;14.82;8.55;;;;;;;8.39;100.00;96621.13;4993595;28;20030;-84
2024/02/13 05:01:25;;;;;;;14.25;7.68;;;;;;;8.44;100.00;96629.63;4991050;28;20025;-84
2024/02/13 05:09:04;;;;;;;14.38;7.93;;;;;;;8.68;100.00;96638.63;4998607;28;20040;-81
2024/02/13 05:11:30;;;;;;;13.57;6.63;;;;;;;8.60;100.00;96638.31;4981436;28;20084;-85
2024/02/13 05:13:56;;;;;;;14.02;6.63;;;;;;;8.62;100.00;96642.56;4982802;28;20061;-84
2024/02/13 05:16:24;;;;;;;14.20;7.18;;;;;;;8.56;100.00;96647.44;4989495;28;20022;-84
2024/02/13 05:18:51;;;;;;;13.20;6.78;;;;;;;8.50;100.00;96639.88;4981165;28;20045;-80
2024/02/13 05:21:19;;;;;;;16.00;6.78;;;;;;;8.64;100.00;96645.97;4997161;28;20506;-79
2024/02/13 05:23:47;;;;;;;14.82;7.43;;;;;;;8.63;100.00;96638.94;4984786;28;20026;-78
2024/02/13 05:26:14;;;;;;;12.45;6.90;;;;;;;8.75;100.00;96641.72;5009980;28;20022;-79
2024/02/13 05:28:40;;;;;;;22.35;10.43;;;;;;;8.67;100.00;96639.59;4980140;28;20053;-79
2024/02/13 05:31:05;;;;;;;15.68;8.13;;;;;;;8.71;100.00;96651.72;5002091;28;20022;-81
2024/02/13 05:33:35;;;;;;;15.25;8.48;;;;;;;8.74;100.00;96648.84;5001114;28;20027;-80
2024/02/13 05:36:04;;;;;;;36.13;12.35;;;;;;;8.70;100.00;96645.53;5005125;28;20034;-82
2024/02/13 05:38:43;;;;;;;22.05;10.32;;;;;;;8.72;100.00;96648.13;4984943;28;20042;-80
2024/02/13 05:41:09;;;;;;;23.25;9.88;;;;;;;8.80;100.00;96650.28;5008716;28;20037;-81
2024/02/13 05:43:34;;;;;;;25.50;10.50;;;;;;;8.80;100.00;96650.28;4981583;28;20487;-83
2024/02/13 05:46:00;;;;;;;22.70;9.88;;;;;;;8.80;100.00;96661.75;5009231;28;20539;-80
2024/02/13 05:48:27;;;;;;;19.95;9.65;;;;;;;8.83;100.00;96661.53;4985698;28;20056;-80
2024/02/13 05:50:52;;;;;;;21.83;10.25;;;;;;;8.87;100.00;96664.84;4996229;28;20164;-79
2024/02/13 05:53:18;;;;;;;22.92;10.65;;;;;;;8.89;100.00;96666.44;4988725;28;20117;-80
2024/02/13 05:55:44;;;;;;;18.17;8.55;;;;;;;8.97;100.00;96664.13;4992325;28;20045;-80
2024/02/13 05:58:10;;;;;;;39.20;15.82;;;;;;;8.98;100.00;96668.47;4991164;28;20045;-80
2024/02/13 06:00:35;;;;;;;26.58;12.23;;;;;;;9.01;100.00;96676.25;5001823;28;20057;-80
2024/02/13 06:03:02;;;;;;;23.83;13.05;;;;;;;9.09;100.00;96689.94;4989591;28;20057;-81
2024/02/13 06:05:28;;;;;;;24.13;13.40;;;;;;;9.07;100.00;96680.34;4983484;28;20034;-81
2024/02/13 06:07:54;;;;;;;18.63;11.05;;;;;;;8.99;100.00;96682.66;5006450;28;20037;-80
2024/02/13 06:10:20;;;;;;;21.77;10.93;;;;;;;9.03;100.00;96690.38;4999461;28;20048;-81
2024/02/13 06:12:45;;;;;;;22.98;11.82;;;;;;;9.11;100.00;96681.81;4994781;28;20036;-80
2024/02/13 06:15:11;;;;;;;27.38;13.23;;;;;;;9.34;100.00;96693.56;4984479;28;20030;-80
2024/02/13 06:17:37;;;;;;;24.40;12.15;;;;;;;9.34;100.00;96685.53;4984756;28;20030;-81
2024/02/13 06:20:08;;;;;;;26.80;11.90;;;;;;;9.43;100.00;96692.91;4979778;28;20096;-80
2024/02/13 06:22:35;;;;;;;20.92;11.82;;;;;;;9.48;100.00;96702.28;4988847;28;20513;-80
2024/02/13 06:25:01;;;;;;;28.52;13.65;;;;;;;9.56;100.00;96683.06;4979424;28;20522;-79
2024/02/13 06:27:27;;;;;;;35.97;15.15;;;;;;;9.72;100.00;96705.84;4989782;28;20489;-80
2024/02/13 06:29:52;;;;;;;27.80;13.80;;;;;;;9.88;100.00;96700.25;4980250;28;20061;-80
2024/02/13 06:32:18;;;;;;;31.83;14.48;;;;;;;10.09;100.00;96697.88;4976739;28;20113;-80
2024/02/13 06:34:44;;;;;;;27.60;14.02;;;;;;;10.36;100.00;96689.63;5009880;28;20414;-81
2024/02/13 06:37:10;;;;;;;25.70;11.98;;;;;;;10.53;100.00;96691.88;5011520;28;20026;-79
2024/02/13 06:39:36;;;;;;;19.58;9.68;;;;;;;10.76;100.00;96697.22;4988463;28;20027;-81
2024/02/13 06:42:02;;;;;;;24.02;10.52;;;;;;;11.09;100.00;96699.09;4995393;28;20111;-80
2024/02/13 06:44:30;;;;;;;19.88;9.63;;;;;;;11.38;100.00;96692.31;4987775;28;20489;-79
2024/02/13 06:46:56;;;;;;;16.63;9.55;;;;;;;11.92;100.00;96681.75;4995890;28;20117;-80
2024/02/13 06:49:22;;;;;;;18.85;9.50;;;;;;;11.67;100.00;96679.28;4986404;28;20528;-82
2024/02/13 06:51:47;;;;;;;20.73;10.77;;;;;;;11.42;100.00;96682.22;4982301;28;20037;-80
2024/02/13 06:54:13;;;;;;;19.75;10.23;;;;;;;11.49;100.00;96694.16;4985898;28;20397;-80
2024/02/13 06:56:38;;;;;;;22.40;12.27;;;;;;;11.44;100.00;96697.19;4985304;28;20022;-81
2024/02/13 06:59:07;;;;;;;20.40;11.80;;;;;;;11.28;100.00;96680.66;5002271;28;20027;-82
2024/02/13 07:01:33;;;;;;;24.98;12.23;;;;;;;11.10;100.00;96692.78;4987143;28;20022;-80
2024/02/13 07:03:58;;;;;;;24.15;11.75;;;;;;;11.12;100.00;96696.19;4996771;28;20044;-80
2024/02/13 07:06:24;;;;;;;27.27;15.00;;;;;;;11.10;100.00;96695.47;4998091;28;20417;-80
2024/02/13 07:08:49;;;;;;;29.80;13.32;;;;;;;11.11;100.00;96699.84;4992060;28;20113;-81
2024/02/13 07:11:15;;;;;;;19.55;10.50;;;;;;;11.29;100.00;96692.19;5000418;28;20030;-80
2024/02/13 07:13:41;;;;;;;28.02;12.55;;;;;;;11.62;100.00;96688.69;4997736;28;20033;-80
2024/02/13 07:16:07;;;;;;;26.45;12.70;;;;;;;11.75;100.00;96684.09;5010792;28;20494;-79
2024/02/13 07:18:35;;;;;;;21.55;11.85;;;;;;;11.74;100.00;96677.00;4998232;28;20456;-79
2024/02/13 07:21:01;;;;;;;23.48;12.02;;;;;;;11.82;100.00;96687.97;4997875;28;20030;-80
2024/02/13 07:23:27;;;;;;;19.65;9.27;;;;;;;11.91;100.00;96689.88;5001009;28;20037;-80
2024/02/13 07:25:53;;;;;;;22.40;11.20;;;;;;;11.62;100.00;96680.66;4995281;28;20033;-79
2024/02/13 07:28:19;;;;;;;14.77;8.25;;;;;;;11.98;100.00;96701.81;4984696;28;20026;-80
2024/02/13 07:30:45;;;;;;;19.05;8.63;;;;;;;11.90;100.00;96688.22;4989873;28;20033;-79
2024/02/13 07:33:10;;;;;;;13.70;7.63;;;;;;;11.96;100.00;96687.72;4991958;28;20123;-79
2024/02/13 07:35:36;;;;;;;16.08;8.07;;;;;;;12.07;100.00;96679.63;4991571;28;20048;-79
2024/02/13 07:38:04;;;;;;;14.43;7.85;;;;;;;12.11;100.00;96697.19;4990424;28;20030;-80
2024/02/13 07:40:30;;;;;;;11.85;6.45;;;;;;;12.04;100.00;96693.28;4995208;28;20033;-82
2024/02/13 07:42:56;;;;;;;14.25;7.15;;;;;;;12.11;100.00;96683.78;4978474;28;20116;-79
2024/02/13 07:45:22;;;;;;;14.57;7.18;;;;;;;12.23;100.00;96685.44;4993460;28;20573;-80
2024/02/13 07:47:48;;;;;;;18.30;7.65;;;;;;;12.11;100.00;96677.56;4986414;28;20116;-80
2024/02/13 07:50:14;;;;;;;15.70;9.07;;;;;;;12.27;100.00;96686.91;4991379;28;20120;-78
2024/02/13 07:52:40;;;;;;;14.70;7.50;;;;;;;12.34;100.00;96676.50;5008701;28;20420;-80
2024/02/13 07:55:06;;;;;;;13.60;8.30;;;;;;;12.40;100.00;96676.00;4994875;28;20091;-80
2024/02/13 07:57:34;;;;;;;19.55;12.02;;;;;;;12.51;100.00;96692.06;5014611;28;20452;-81
2024/02/13 07:59:59;;;;;;;18.70;10.43;;;;;;;12.68;100.00;96672.69;4989504;28;20026;-82
2024/02/13 08:02:25;;;;;;;23.00;12.77;;;;;;;13.43;100.00;96678.75;4998720;28;20141;-81
2024/02/13 08:04:53;;;;;;;14.20;8.20;;;;;;;13.68;100.00;96671.22;4985448;28;20038;-79
2024/02/13 08:07:19;;;;;;;13.68;7.50;;;;;;;14.45;100.00;96662.38;4982696;28;20498;-80
2024/02/13 08:09:45;;;;;;;7.50;4.22;;;;;;;14.70;100.00;96649.34;4981947;28;20035;-79
2024/02/13 08:12:12;;;;;;;9.23;4.78;;;;;;;14.84;100.00;96648.91;4974197;28;20494;-80
2024/02/13 08:14:38;;;;;;;7.38;4.78;;;;;;;14.79;98.00;96643.97;4998386;28;20113;-80
2024/02/13 08:17:08;;;;;;;8.20;4.80;;;;;;;15.04;98.87;96647.91;4982148;28;20038;-80
2024/02/13 08:19:34;;;;;;;9.32;5.85;;;;;;;15.02;99.29;96639.09;4998673;28;20488;-80
2024/02/13 08:22:00;;;;;;;6.88;3.90;;;;;;;15.15;91.32;96629.72;4998672;28;20442;-80
2024/02/13 08:24:29;;;;;;;5.70;3.30;;;;;;;15.31;88.40;96626.44;4987662;28;20378;-79
2024/02/13 08:26:55;;;;;;;5.78;2.50;;;;;;;15.42;79.03;96611.91;5005437;28;20025;-81
2024/02/13 08:29:21;;;;;;;2.67;2.05;;;;;;;14.61;80.57;96618.75;4985370;28;20030;-80
2024/02/13 08:31:50;;;;;;;2.28;1.98;;;;;;;14.19;86.76;96634.28;4987825;28;20029;-80
2024/02/13 08:34:19;;;;;;;2.05;1.60;;;;;;;13.70;90.16;96642.34;4999776;28;20041;-80
2024/02/13 08:36:45;;;;;;;3.47;1.88;;;;;;;13.58;95.24;96647.84;4982567;28;20136;-80
2024/02/13 08:39:11;;;;;;;3.65;2.00;;;;;;;13.39;94.15;96641.53;4982085;28;20235;-81
2024/02/13 08:41:37;;;;;;;2.25;1.80;;;;;;;13.30;96.71;96645.03;4975553;28;20097;-80
2024/02/13 08:44:03;;;;;;;2.92;2.33;;;;;;;13.32;97.47;96643.06;5007126;28;20060;-80
2024/02/13 08:46:29;;;;;;;2.15;1.77;;;;;;;13.73;93.54;96647.47;4990104;28;20568;-79
2024/02/13 08:48:55;;;;;;;1.98;1.77;;;;;;;13.31;93.28;96649.41;4983302;28;20132;-80
2024/02/13 08:51:26;;;;;;;2.28;1.50;;;;;;;13.11;93.46;96645.75;4983251;28;20165;-80
2024/02/13 08:53:52;;;;;;;1.92;1.50;;;;;;;13.12;93.23;96635.88;4982614;28;20073;-80
2024/02/13 08:56:18;;;;;;;4.07;2.90;;;;;;;13.08;94.47;96640.66;4977488;28;20475;-82
2024/02/13 08:58:44;;;;;;;9.68;2.13;;;;;;;13.22;89.46;96632.28;4994070;28;20104;-79
2024/02/13 09:01:09;;;;;;;3.72;2.17;;;;;;;13.21;89.98;96635.94;4985933;28;20081;-80
2024/02/13 09:03:35;;;;;;;4.07;2.55;;;;;;;13.04;90.35;96639.22;4987328;28;20057;-81
2024/02/13 09:06:04;;;;;;;14.75;7.75;;;;;;;12.83;92.47;96643.72;4990614;28;20402;-79
2024/02/13 09:08:37;;;;;;;5.35;3.17;;;;;;;12.60;94.01;96642.16;5000142;28;20509;-78
2024/02/13 09:11:05;;;;;;;6.95;2.72;;;;;;;12.37;97.86;96639.56;4994490;28;20021;-79
2024/02/13 09:13:30;;;;;;;4.05;2.53;;;;;;;12.22;99.41;96648.88;4989250;28;20033;-80
2024/02/13 09:15:56;;;;;;;3.35;2.60;;;;;;;12.34;99.71;96647.00;4981074;28;20481;-79
2024/02/13 09:18:22;;;;;;;3.13;2.20;;;;;;;12.52;96.96;96651.69;4995710;28;20576;-80
2024/02/13 09:20:49;;;;;;;3.75;2.80;;;;;;;12.44;97.04;96647.94;5006657;28;20437;-80
2024/02/13 09:23:18;;;;;;;4.00;2.33;;;;;;;12.47;96.57;96647.69;5013325;28;20030;-80
2024/02/13 09:25:49;;;;;;;5.57;3.20;;;;;;;12.47;98.13;96643.19;5002797;28;20065;-79
2024/02/13 09:28:18;;;;;;;4.30;2.80;;;;;;;12.75;94.34;96632.78;4984140;28;20093;-79
2024/02/13 09:30:47;;;;;;;2.58;1.73;;;;;;;13.19;90.54;96637.06;4985438;28;20079;-80
2024/02/13 09:33:13;;;;;;;4.32;2.80;;;;;;;13.46;86.77;96618.53;4986000;28;20046;-80
2024/02/13 09:35:38;;;;;;;2.55;2.15;;;;;;;13.58;84.53;96623.66;4996248;28;20034;-79
2024/02/13 09:38:04;;;;;;;5.93;3.63;;;;;;;13.70;82.15;96626.22;4982171;28;20118;-81
2024/02/13 09:40:32;;;;;;;3.90;2.38;;;;;;;13.75;82.99;96627.53;5009370;28;20038;-79
2024/02/13 09:42:58;;;;;;;5.85;3.25;;;;;;;13.80;78.74;96636.03;4990507;28;20030;-80
2024/02/13 09:45:25;;;;;;;5.03;2.95;;;;;;;13.61;77.67;96614.47;5001361;28;20037;-80
2024/02/13 09:47:52;;;;;;;6.03;3.15;;;;;;;13.70;77.25;96615.47;4993436;28;20034;-80
2024/02/13 09:50:18;;;;;;;6.03;3.70;;;;;;;13.85;77.85;96612.28;4990307;28;20414;-82
2024/02/13 09:52:49;;;;;;;4.63;3.15;;;;;;;13.88;75.31;96611.13;4993694;28;20034;-81
2024/02/13 09:55:15;;;;;;;3.45;2.30;;;;;;;13.68;75.54;96614.78;4989265;28;20033;-80
2024/02/13 09:57:41;;;;;;;3.95;2.60;;;;;;;13.40;77.61;96603.81;4990074;28;21481;-81
2024/02/13 10:00:08;;;;;;;3.33;2.40;;;;;;;13.26;77.97;96603.31;4987596;28;20045;-80
2024/02/13 10:02:40;;;;;;;4.90;3.53;;;;;;;13.22;80.71;96624.22;4986148;28;20128;-81
2024/02/13 10:05:10;;;;;;;3.78;2.50;;;;;;;13.07;82.08;96612.09;5007057;28;20029;-81
2024/02/13 10:07:40;;;;;;;3.35;2.05;;;;;;;12.95;82.85;96622.03;4999850;28;20061;-79
2024/02/13 10:10:11;;;;;;;9.82;2.92;;;;;;;12.87;85.07;96612.94;5001108;28;20107;-80
2024/02/13 10:12:53;;;;;;;8.77;2.80;;;;;;;12.88;84.56;96617.34;4995791;28;20470;-81
2024/02/13 10:15:20;;;;;;;6.22;2.60;;;;;;;12.85;84.98;96612.25;5002552;28;20277;-81
2024/02/13 10:17:45;;;;;;;11.02;5.60;;;;;;;12.79;92.23;96628.88;4979424;28;20046;-78
2024/02/13 10:20:13;;;;;;;5.18;3.53;;;;;;;12.66;87.75;96620.16;4986592;28;20045;-80
2024/02/13 10:23:00;;;;;;;4.22;2.45;;;;;;;12.58;86.67;96614.59;4988126;28;20547;-80
2024/02/13 10:25:31;;;;;;;5.35;2.83;;;;;;;12.56;88.71;96609.34;4992505;28;20028;-80
2024/02/13 10:28:01;;;;;;;30.20;2.58;;;;;;;12.77;84.64;96610.22;4991765;28;20018;-80
2024/02/13 10:30:29;;;;;;;3.88;2.38;;;;;;;12.83;87.38;96614.19;4981910;28;20040;-80
2024/02/13 10:33:01;;;;;;;5.57;2.45;;;;;;;13.12;84.40;96614.41;4995754;28;20445;-80
2024/02/13 10:35:30;;;;;;;3.53;2.40;;;;;;;13.13;84.61;96608.06;5000739;28;20037;-80
2024/02/13 10:37:56;;;;;;;4.10;1.85;;;;;;;13.15;84.51;96606.06;4989980;28;20030;-80
2024/02/13 10:40:26;;;;;;;2.67;2.28;;;;;;;13.05;85.32;96614.91;4988441;28;20026;-79
2024/02/13 10:42:56;;;;;;;3.40;2.00;;;;;;;13.14;83.50;96602.53;4995259;28;20162;-80
2024/02/13 10:45:30;;;;;;;2.15;1.80;;;;;;;13.27;83.68;96621.13;4982954;28;20030;-81
2024/02/13 10:48:30;;;;;;;3.33;1.52;;;;;;;13.33;84.49;96623.25;4990328;28;20403;-80
2024/02/13 10:50:59;;;;;;;2.60;2.10;;;;;;;13.15;89.45;96623.03;4994817;28;20026;-81
2024/02/13 10:53:25;;;;;;;3.60;2.53;;;;;;;12.98;89.56;96621.78;4977461;28;20026;-80
2024/02/13 10:55:54;;;;;;;3.50;2.38;;;;;;;12.83;95.05;96630.28;4983757;28;20034;-80
2024/02/13 10:58:29;;;;;;;2.78;2.17;;;;;;;12.66;95.49;96634.44;5009016;28;20053;-80
2024/02/13 11:00:59;;;;;;;3.45;2.53;;;;;;;12.48;99.72;96641.34;5011727;28;20474;-80
2024/02/13 11:03:25;;;;;;;4.40;2.88;;;;;;;12.25;100.00;96643.25;4979339;28;20054;-81
2024/02/13 11:05:51;;;;;;;2.97;1.90;;;;;;;12.36;100.00;96639.69;5004402;28;20030;-80
2024/02/13 11:08:17;;;;;;;3.03;2.50;;;;;;;12.35;100.00;96644.22;4991751;28;20034;-80
2024/02/13 11:10:43;;;;;;;6.13;3.08;;;;;;;12.40;100.00;96644.66;4999766;28;20432;-80
2024/02/13 11:13:10;;;;;;;6.40;2.97;;;;;;;12.38;100.00;96649.31;5006729;28;20044;-80
2024/02/13 11:15:39;;;;;;;4.18;2.72;;;;;;;12.42;100.00;96653.44;5002522;28;20050;-80
2024/02/13 11:18:11;;;;;;;3.15;2.35;;;;;;;12.23;100.00;96658.63;4995436;28;20030;-80
2024/02/13 11:20:43;;;;;;;7.25;3.80;;;;;;;12.02;100.00;96671.13;4984833;28;20029;-82
2024/02/13 11:23:15;;;;;;;9.25;4.07;;;;;;;11.90;100.00;96666.78;4999908;28;20034;-80
2024/02/13 11:25:44;;;;;;;7.47;4.40;;;;;;;11.94;100.00;96670.88;4975382;28;20030;-80
2024/02/13 11:28:11;;;;;;;40.10;24.05;;;;;;;11.93;100.00;96680.75;4975609;28;20473;-80